Time;durP1;ratioP1;P1;durP2;ratioP2;P2;SDS_P1;SDS_P2;PMS_P1;PMS_P2;Temp;Humidity;BMP_temperature;BMP_pressure;BME280_temperature;BME280_humidity;BME280_pressure;Samples;Min_cycle;Max_cycle;Signal;HPM_P1;HPM_P2
2021/04/28 00:00:35;;;;;;;31.50;15.48;;;;;;;-1.69;82.74;99586.72;1694778;84;21572;-61
2021/04/28 00:03:06;;;;;;;28.35;14.25;;;;;;;-1.70;82.66;99591.81;1694753;84;21647;-62
2021/04/28 00:05:34;;;;;;;28.35;14.25;;;;;;;-1.72;82.82;99592.05;1704030;83;21065;-61
2021/04/28 00:08:03;;;;;;;33.48;15.05;;;;;;;-1.72;83.12;99592.58;1712619;83;21147;-61
2021/04/28 00:10:33;;;;;;;32.73;14.40;;;;;;;-1.74;83.11;99592.02;1710689;84;21614;-61
2021/04/28 00:13:01;;;;;;;29.82;13.58;;;;;;;-1.77;82.99;99593.84;1710741;83;21544;-61
2021/04/28 00:15:31;;;;;;;30.77;13.58;;;;;;;-1.79;82.88;99594.59;1710578;84;21334;-61
2021/04/28 00:17:58;;;;;;;26.45;13.08;;;;;;;-1.82;82.87;99589.68;1710541;84;20926;-61
2021/04/28 00:20:26;;;;;;;26.20;11.85;;;;;;;-1.84;82.89;99593.12;1710641;84;20966;-61
2021/04/28 00:22:55;;;;;;;27.10;13.40;;;;;;;-1.84;82.97;99594.48;1710641;84;21084;-61
2021/04/28 00:25:24;;;;;;;28.38;13.10;;;;;;;-1.86;83.26;99593.36;1708700;83;21148;-60
2021/04/28 00:27:52;;;;;;;30.52;13.38;;;;;;;-1.86;83.48;99591.20;1710619;84;21213;-60
2021/04/28 00:30:23;;;;;;;35.20;14.18;;;;;;;-1.86;83.42;99592.55;1688547;84;21195;-61
2021/04/28 00:32:51;;;;;;;27.90;13.70;;;;;;;-1.90;83.38;99596.23;1688105;83;21077;-61
2021/04/28 00:35:19;;;;;;;33.45;14.73;;;;;;;-1.93;83.27;99597.22;1688118;83;21120;-61
2021/04/28 00:37:46;;;;;;;32.48;14.68;;;;;;;-1.94;83.28;99597.75;1710739;83;20950;-61
2021/04/28 00:40:19;;;;;;;35.58;15.23;;;;;;;-1.90;83.26;99595.41;1710754;83;21426;-61
2021/04/28 00:42:47;;;;;;;28.45;14.55;;;;;;;-1.90;83.06;99597.58;1710738;83;20957;-61
2021/04/28 00:45:17;;;;;;;28.07;13.50;;;;;;;-1.90;82.84;99598.10;1710774;83;21682;-61
2021/04/28 00:47:45;;;;;;;29.72;14.47;;;;;;;-1.94;82.65;99599.09;1710751;83;20953;-61
2021/04/28 00:50:20;;;;;;;28.67;14.20;;;;;;;-1.98;82.68;99596.58;1711041;82;21169;-61
2021/04/28 00:52:47;;;;;;;31.17;13.72;;;;;;;-2.02;82.64;99601.59;1711596;83;21210;-61
2021/04/28 00:55:16;;;;;;;29.57;13.55;;;;;;;-2.06;82.58;99594.22;1711391;83;21102;-61
2021/04/28 00:57:44;;;;;;;28.92;14.13;;;;;;;-2.11;82.65;99596.79;1711518;83;21145;-61
2021/04/28 01:00:15;;;;;;;30.25;13.20;;;;;;;-2.12;82.84;99600.00;1681940;85;21174;-61
2021/04/28 01:02:43;;;;;;;28.95;13.40;;;;;;;-2.15;82.92;99599.13;1711640;83;21126;-61
2021/04/28 01:05:12;;;;;;;28.92;13.45;;;;;;;-2.16;82.92;99604.20;1711436;83;21453;-62
2021/04/28 01:07:40;;;;;;;27.40;13.62;;;;;;;-2.18;83.04;99604.96;1708962;83;21158;-61
2021/04/28 01:10:12;;;;;;;30.77;13.65;;;;;;;-2.19;83.29;99598.47;1708965;84;20947;-61
2021/04/28 01:12:41;;;;;;;25.97;12.53;;;;;;;-2.21;83.34;99605.42;1709039;84;21149;-61
2021/04/28 01:15:12;;;;;;;28.87;12.73;;;;;;;-2.24;83.36;99604.55;1709030;84;21078;-62
2021/04/28 01:17:40;;;;;;;26.93;12.93;;;;;;;-2.26;83.46;99604.48;1709011;83;22003;-61
2021/04/28 01:20:11;;;;;;;31.05;14.13;;;;;;;-2.28;83.78;99602.02;1708923;84;21527;-61
2021/04/28 01:22:45;;;;;;;24.52;12.80;;;;;;;-2.30;83.93;99600.09;1708990;84;21107;-61
2021/04/28 01:25:16;;;;;;;29.32;13.72;;;;;;;-2.32;83.99;99598.70;1708866;83;21153;-61
2021/04/28 01:27:48;;;;;;;29.87;13.60;;;;;;;-2.36;84.07;99601.03;1690592;84;21166;-61
2021/04/28 01:30:17;;;;;;;;;;;;;;;-2.38;84.20;99602.61;1711536;84;21388;-61
2021/04/28 01:32:47;;;;;;;34.63;14.45;;;;;;;-2.39;84.17;99602.84;1708940;83;20148;-61
2021/04/28 01:35:16;;;;;;;27.77;13.22;;;;;;;-2.41;84.19;99602.25;1709002;83;21552;-61
2021/04/28 01:37:47;;;;;;;30.15;13.85;;;;;;;-2.42;84.15;99601.43;1708989;84;21085;-61
2021/04/28 01:40:17;;;;;;;26.82;12.13;;;;;;;-2.42;84.15;99605.46;1708984;84;21075;-61
2021/04/28 01:42:46;;;;;;;32.20;12.90;;;;;;;-2.43;84.12;99604.34;1690581;84;21392;-61
2021/04/28 01:45:15;;;;;;;26.40;11.97;;;;;;;-2.45;84.14;99605.92;1690791;84;21168;-61
2021/04/28 01:47:43;;;;;;;31.02;12.13;;;;;;;-2.48;84.04;99605.03;1708942;82;21086;-61
2021/04/28 01:50:13;;;;;;;32.90;12.73;;;;;;;-2.49;83.99;99603.92;1710119;81;21616;-61
2021/04/28 01:52:42;;;;;;;27.27;12.03;;;;;;;-2.52;84.07;99603.03;1697513;83;21147;-60
2021/04/28 01:55:11;;;;;;;28.87;12.28;;;;;;;-2.55;84.20;99601.62;1704369;84;21398;-61
2021/04/28 01:57:42;;;;;;;28.77;10.78;;;;;;;-2.58;84.16;99606.11;1703457;84;21171;-60
2021/04/28 02:00:18;;;;;;;26.50;11.15;;;;;;;-2.60;84.23;99602.84;1704127;84;21231;-61
2021/04/28 02:02:48;;;;;;;25.72;12.23;;;;;;;-2.63;84.22;99606.50;1704430;84;21496;-61
2021/04/28 02:05:18;;;;;;;29.10;12.05;;;;;;;-2.64;84.44;99607.02;1678057;84;21505;-61
2021/04/28 02:07:46;;;;;;;29.30;11.33;;;;;;;-2.67;84.44;99602.92;1704216;84;21257;-60
2021/04/28 02:10:15;;;;;;;26.05;11.45;;;;;;;-2.69;84.39;99606.37;1704310;84;21038;-60
2021/04/28 02:12:45;;;;;;;24.92;11.80;;;;;;;-2.71;84.40;99605.77;1704392;84;21521;-60
2021/04/28 02:15:15;;;;;;;30.20;12.47;;;;;;;-2.74;84.44;99607.57;1632304;84;21029;-60
2021/04/28 02:17:56;;;;;;;30.70;12.60;;;;;;;-2.72;84.46;99601.97;1873619;76;22577;-58
2021/04/28 02:20:24;;;;;;;30.43;13.43;;;;;;;-2.77;84.49;99602.66;1841688;78;20889;-61
2021/04/28 02:22:54;;;;;;;37.42;13.88;;;;;;;-2.78;84.60;99598.33;1839970;78;21197;-61
2021/04/28 02:25:24;;;;;;;37.35;16.50;;;;;;;-2.79;84.76;99604.75;1841526;78;20928;-61
2021/04/28 02:27:54;;;;;;;47.08;17.32;;;;;;;-2.82;84.76;99607.89;1839656;78;20925;-60
2021/04/28 02:30:24;;;;;;;56.05;20.92;;;;;;;-2.83;84.78;99604.91;1841636;78;20920;-60
2021/04/28 02:32:53;;;;;;;61.58;22.75;;;;;;;-2.84;84.95;99608.64;1841682;78;20909;-60
2021/04/28 02:35:41;;;;;;;57.60;22.95;;;;;;;-2.84;84.97;99601.92;1841553;77;21197;-62
2021/04/28 02:38:36;;;;;;;54.60;20.90;;;;;;;-2.87;84.88;99601.03;1811979;78;20943;-62
2021/04/28 02:41:08;;;;;;;55.55;20.90;;;;;;;-2.88;84.86;99608.80;1833022;76;21562;-62
2021/04/28 02:43:38;;;;;;;58.42;23.73;;;;;;;-2.89;84.90;99613.08;1808526;79;20995;-63
2021/04/28 02:46:11;;;;;;;63.87;23.18;;;;;;;-2.91;84.82;99610.62;1831398;78;21011;-62
2021/04/28 02:48:42;;;;;;;;;;;;;;;-2.94;84.77;99612.94;1844453;78;22170;-62
2021/04/28 02:51:23;;;;;;;51.55;19.85;;;;;;;-2.96;84.79;99615.84;1826175;78;25646;-62
2021/04/28 02:53:50;;;;;;;56.90;21.50;;;;;;;-2.97;84.89;99614.73;1830435;78;20922;-62
2021/04/28 02:56:18;;;;;;;58.25;21.17;;;;;;;-2.99;84.95;99612.27;1823141;78;21007;-61
2021/04/28 02:58:46;;;;;;;54.73;20.17;;;;;;;-2.99;84.97;99616.30;1823940;78;21506;-61
2021/04/28 03:01:14;;;;;;;51.15;20.23;;;;;;;-2.97;85.09;99616.89;1823772;78;21190;-62
2021/04/28 03:03:42;;;;;;;59.50;22.40;;;;;;;-2.95;85.35;99619.36;1808493;79;20932;-62
2021/04/28 03:06:16;;;;;;;57.17;21.95;;;;;;;-2.95;85.47;99617.48;1807651;79;21030;-61
2021/04/28 03:09:00;;;;;;;66.92;23.15;;;;;;;-2.92;85.63;99621.06;1834945;78;20933;-62
2021/04/28 03:11:28;;;;;;;66.10;21.90;;;;;;;-2.89;85.54;99627.33;1841540;78;21039;-62
2021/04/28 03:13:58;;;;;;;68.15;22.52;;;;;;;-2.86;85.60;99623.34;1816603;78;21264;-62
2021/04/28 03:16:25;;;;;;;64.27;22.37;;;;;;;-2.82;85.62;99624.00;1809759;79;21570;-62
2021/04/28 03:18:54;;;;;;;60.30;21.77;;;;;;;-2.78;85.58;99637.28;1814240;79;20917;-62
2021/04/28 03:21:22;;;;;;;64.30;19.82;;;;;;;-2.75;85.51;99627.42;1814254;79;21478;-62
2021/04/28 03:23:50;;;;;;;45.20;16.55;;;;;;;-2.70;85.59;99630.78;1814275;79;20916;-62
2021/04/28 03:26:19;;;;;;;49.95;17.65;;;;;;;-2.66;85.66;99634.13;1814217;79;21201;-62
2021/04/28 03:28:47;;;;;;;48.95;16.75;;;;;;;-2.60;85.75;99636.43;1813698;79;20995;-62
2021/04/28 03:31:15;;;;;;;51.90;18.35;;;;;;;-2.54;85.82;99634.70;1813505;79;21330;-62
2021/04/28 03:33:45;;;;;;;51.98;16.93;;;;;;;-2.48;85.86;99641.85;1813467;79;21663;-62
2021/04/28 03:36:13;;;;;;;56.02;18.40;;;;;;;-2.40;86.04;99641.53;1786526;79;20987;-62
2021/04/28 03:38:59;;;;;;;51.53;18.12;;;;;;;-2.34;86.06;99640.61;1813680;79;21379;-61
2021/04/28 03:41:28;;;;;;;47.15;18.60;;;;;;;-2.26;86.11;99640.78;1813528;79;20979;-63
2021/04/28 03:43:56;;;;;;;46.13;19.10;;;;;;;-2.19;86.24;99648.23;1812998;77;20940;-61
2021/04/28 03:46:25;;;;;;;47.25;18.10;;;;;;;-2.11;86.30;99652.75;1793459;79;21171;-62
2021/04/28 03:48:54;;;;;;;45.85;18.37;;;;;;;-2.03;86.41;99647.56;1812576;79;21478;-61
2021/04/28 03:51:23;;;;;;;43.90;15.95;;;;;;;-1.91;86.52;99655.66;1843093;77;21250;-61
2021/04/28 03:54:09;;;;;;;40.12;16.30;;;;;;;-1.80;86.58;99657.55;1846429;77;21572;-61
2021/04/28 03:56:39;;;;;;;46.98;16.12;;;;;;;-1.69;86.60;99656.70;1846439;77;21092;-61
2021/04/28 03:59:09;;;;;;;44.18;15.85;;;;;;;-1.57;86.60;99660.22;1834993;77;21241;-61
2021/04/28 04:01:39;;;;;;;38.90;15.72;;;;;;;-1.45;86.53;99667.78;1800136;79;21100;-62
2021/04/28 04:04:09;;;;;;;39.42;16.85;;;;;;;-1.31;86.38;99667.02;1793169;80;21248;-62
2021/04/28 04:06:56;;;;;;;38.02;16.52;;;;;;;-1.18;86.28;99667.30;1793142;80;21645;-62
2021/04/28 04:09:32;;;;;;;42.00;16.42;;;;;;;-1.02;86.18;99675.98;1791403;80;21052;-62
2021/04/28 04:12:01;;;;;;;33.33;14.80;;;;;;;-0.88;86.00;99677.88;1793328;80;21495;-62
2021/04/28 04:14:32;;;;;;;35.60;16.17;;;;;;;-0.75;85.67;99678.44;1796561;79;20920;-62
2021/04/28 04:17:01;;;;;;;35.40;16.40;;;;;;;-0.58;85.14;99683.91;1777945;79;22123;-62
2021/04/28 04:19:29;;;;;;;31.00;13.00;;;;;;;-0.41;84.61;99688.80;1788770;79;21016;-62
2021/04/28 04:22:10;;;;;;;27.75;11.78;;;;;;;-0.20;83.91;99688.65;1873509;76;22639;-63
2021/04/28 04:24:41;;;;;;;33.67;12.65;;;;;;;-0.07;83.18;99692.93;1839556;78;20920;-64
2021/04/28 04:27:10;;;;;;;33.10;13.03;;;;;;;0.12;82.46;99692.16;1841309;78;21178;-64
2021/04/28 04:29:46;;;;;;;34.73;11.95;;;;;;;0.27;81.79;99691.06;1823167;78;20948;-63
2021/04/28 04:32:18;;;;;;;28.80;11.95;;;;;;;0.43;80.99;99697.00;1826793;77;21035;-63
2021/04/28 04:35:07;;;;;;;28.30;10.93;;;;;;;0.59;80.39;99704.26;1840831;77;21289;-61
2021/04/28 04:37:53;;;;;;;31.33;12.00;;;;;;;0.75;79.55;99697.20;1841402;77;20991;-68
2021/04/28 04:40:39;;;;;;;25.65;10.70;;;;;;;0.93;78.83;99707.73;1841626;77;21364;-63
2021/04/28 04:43:09;;;;;;;23.98;9.38;;;;;;;1.10;77.79;99700.95;1827629;78;21055;-68
2021/04/28 04:45:41;;;;;;;20.62;9.80;;;;;;;1.25;76.84;99702.47;1839613;78;20964;-66
2021/04/28 04:48:09;;;;;;;20.65;9.23;;;;;;;1.40;75.96;99701.84;1841583;78;21047;-62
2021/04/28 04:50:39;;;;;;;17.45;8.88;;;;;;;1.57;75.07;99705.84;1841549;77;21582;-68
2021/04/28 04:53:08;;;;;;;22.60;9.35;;;;;;;1.73;74.31;99708.19;1841507;77;22102;-68
2021/04/28 04:55:39;;;;;;;23.45;11.97;;;;;;;1.89;73.45;99713.48;1841494;78;20935;-63
2021/04/28 04:58:06;;;;;;;26.45;11.88;;;;;;;2.06;72.80;99709.33;1841529;78;20885;-63
2021/04/28 05:00:34;;;;;;;44.13;11.83;;;;;;;2.24;72.10;99719.80;1790642;80;21002;-64
2021/04/28 05:03:01;;;;;;;23.65;9.48;;;;;;;2.38;71.37;99717.45;1769595;79;21638;-65
2021/04/28 05:05:29;;;;;;;19.35;9.23;;;;;;;2.55;70.57;99724.92;1751069;82;21169;-71
2021/04/28 05:07:58;;;;;;;22.85;9.35;;;;;;;2.72;70.71;99720.72;1751123;81;20973;-73
2021/04/28 05:10:26;;;;;;;19.67;7.25;;;;;;;2.88;69.90;99723.81;1751208;82;20992;-74
2021/04/28 05:12:56;;;;;;;11.73;6.55;;;;;;;3.06;68.31;99726.61;1719018;82;21000;-67
2021/04/28 05:15:24;;;;;;;12.65;6.10;;;;;;;3.25;67.02;99729.71;1751154;82;21020;-67
2021/04/28 05:17:57;;;;;;;15.80;6.33;;;;;;;3.42;65.03;99727.63;1751182;82;22352;-68
2021/04/28 05:20:22;;;;;;;12.23;5.40;;;;;;;3.65;63.89;99729.06;1722517;81;21241;-68
2021/04/28 05:22:49;;;;;;;17.17;6.50;;;;;;;3.88;62.91;99729.14;1760305;80;20945;-71
2021/04/28 05:25:27;;;;;;;15.10;5.60;;;;;;;4.07;62.28;99727.53;1873550;76;22798;-62
2021/04/28 05:27:55;;;;;;;11.48;5.70;;;;;;;4.19;60.85;99734.08;1841586;78;21039;-67
2021/04/28 05:30:24;;;;;;;18.52;6.40;;;;;;;4.38;59.41;99735.74;1841323;78;21388;-66
2021/04/28 05:32:52;;;;;;;16.67;7.08;;;;;;;4.56;59.28;99737.94;1841455;78;21000;-65
2021/04/28 05:35:20;;;;;;;13.62;6.78;;;;;;;4.73;58.50;99738.45;1818974;76;21621;-64
2021/04/28 05:37:49;;;;;;;9.58;4.72;;;;;;;4.89;58.68;99743.34;1836141;78;20936;-63
2021/04/28 05:40:17;;;;;;;9.58;4.70;;;;;;;5.04;56.30;99746.05;1813739;76;20880;-63
2021/04/28 05:42:45;;;;;;;10.65;5.15;;;;;;;5.20;56.46;99748.98;1824463;78;21357;-62
2021/04/28 05:45:14;;;;;;;11.70;6.42;;;;;;;5.33;56.41;99754.95;1841309;78;20991;-62
2021/04/28 05:47:42;;;;;;;8.75;4.37;;;;;;;5.42;55.93;99754.66;1808151;78;21114;-62
2021/04/28 05:50:13;;;;;;;8.60;5.05;;;;;;;5.55;52.92;99755.43;1820643;78;21169;-61
2021/04/28 05:52:40;;;;;;;10.72;3.52;;;;;;;5.64;54.11;99756.48;1789915;79;21148;-62
2021/04/28 05:55:10;;;;;;;11.95;6.53;;;;;;;5.77;51.72;99755.89;1755271;80;21364;-63
2021/04/28 05:57:38;;;;;;;5.42;3.92;;;;;;;5.86;49.88;99755.55;1750593;82;21028;-60
2021/04/28 06:00:11;;;;;;;7.35;2.08;;;;;;;5.92;50.65;99758.55;1750659;82;21650;-61
2021/04/28 06:02:44;;;;;;;5.72;1.65;;;;;;;6.05;49.45;99765.86;1751187;82;21611;-60
2021/04/28 06:05:12;;;;;;;7.58;2.20;;;;;;;6.22;49.32;99754.86;1755415;79;20981;-62
2021/04/28 06:07:39;;;;;;;2.87;1.80;;;;;;;6.35;48.72;99762.96;1781587;80;21224;-65
2021/04/28 06:10:11;;;;;;;6.15;2.00;;;;;;;6.35;48.72;99762.96;1751243;80;21179;-64
2021/04/28 06:12:40;;;;;;;12.25;2.37;;;;;;;6.56;46.99;99760.88;1747837;82;21199;-62
2021/04/28 06:15:09;;;;;;;5.80;2.30;;;;;;;6.56;46.99;99760.88;1734814;82;21172;-62
2021/04/28 06:17:37;;;;;;;3.12;2.27;;;;;;;6.67;46.54;99764.35;1735749;82;21104;-61
2021/04/28 06:20:07;;;;;;;10.60;8.13;;;;;;;6.72;45.59;99759.67;1735713;81;22039;-61
2021/04/28 06:22:34;;;;;;;4.72;2.60;;;;;;;6.74;45.96;99762.92;1735602;81;21020;-65
2021/04/28 06:25:05;;;;;;;4.67;2.62;;;;;;;6.83;45.67;99761.77;1736628;79;21567;-69
2021/04/28 06:27:34;;;;;;;6.78;2.72;;;;;;;6.92;44.96;99760.05;1740808;79;21155;-66
2021/04/28 06:30:04;;;;;;;5.53;2.42;;;;;;;6.98;45.37;99757.52;1766633;80;21006;-61
2021/04/28 06:32:32;;;;;;;5.00;2.80;;;;;;;7.09;46.37;99765.06;1746357;79;21324;-61
2021/04/28 06:34:59;;;;;;;4.47;2.55;;;;;;;7.19;45.29;99754.05;1748280;81;21077;-63
2021/04/28 06:37:28;;;;;;;4.58;2.37;;;;;;;7.29;45.39;99757.48;1735069;82;21648;-62
2021/04/28 06:39:55;;;;;;;4.33;2.17;;;;;;;7.40;44.71;99762.84;1735139;82;22155;-62
2021/04/28 06:42:23;;;;;;;7.08;2.52;;;;;;;7.44;45.35;99759.25;1735061;82;21045;-61
2021/04/28 06:44:50;;;;;;;9.03;3.08;;;;;;;7.55;43.88;99760.73;1736432;79;21271;-62
2021/04/28 06:47:18;;;;;;;8.75;2.87;;;;;;;7.68;44.47;99769.34;1744057;81;21500;-66
2021/04/28 06:49:46;;;;;;;7.08;2.83;;;;;;;7.80;44.97;99765.09;1768588;79;20938;-66
2021/04/28 06:52:14;;;;;;;4.28;2.25;;;;;;;7.93;44.58;99766.30;1797709;79;20927;-66
2021/04/28 06:54:42;;;;;;;3.77;1.70;;;;;;;8.09;42.46;99773.73;1797859;79;21532;-68
2021/04/28 06:57:09;;;;;;;2.95;1.87;;;;;;;8.18;41.05;99770.59;1797754;79;21194;-63
2021/04/28 06:59:37;;;;;;;6.30;1.55;;;;;;;8.22;41.47;99781.21;1797672;79;20903;-63
2021/04/28 07:02:05;;;;;;;2.75;1.40;;;;;;;8.31;40.89;99778.63;1797693;79;20947;-66
2021/04/28 07:04:34;;;;;;;2.37;1.50;;;;;;;8.33;40.07;99780.55;1797196;79;21544;-65
2021/04/28 07:07:02;;;;;;;3.05;1.65;;;;;;;8.37;39.95;99781.03;1797677;79;21091;-63
2021/04/28 07:09:29;;;;;;;2.95;1.72;;;;;;;8.46;39.27;99782.55;1797664;79;21377;-63
2021/04/28 07:11:57;;;;;;;3.67;2.00;;;;;;;8.55;39.14;99780.22;1797667;79;21069;-63
2021/04/28 07:14:26;;;;;;;4.87;1.72;;;;;;;8.64;40.39;99780.92;1797691;79;20923;-62
2021/04/28 07:16:54;;;;;;;1.75;1.35;;;;;;;8.80;40.41;99778.18;1797668;79;20962;-63
2021/04/28 07:19:22;;;;;;;2.92;1.77;;;;;;;8.91;37.46;99782.38;1797660;79;20986;-63
2021/04/28 07:21:49;;;;;;;3.02;1.55;;;;;;;8.89;39.68;99784.05;1797695;79;21396;-64
2021/04/28 07:24:17;;;;;;;3.83;1.32;;;;;;;8.93;35.96;99780.16;1802834;78;21135;-62
2021/04/28 07:26:44;;;;;;;1.60;1.40;;;;;;;8.93;34.97;99778.79;1819355;78;20930;-63
2021/04/28 07:29:14;;;;;;;4.05;1.65;;;;;;;8.95;35.39;99780.67;1804919;79;20946;-63
2021/04/28 07:31:42;;;;;;;2.15;1.55;;;;;;;8.98;35.68;99786.11;1773417;81;21079;-62
2021/04/28 07:34:10;;;;;;;4.33;1.52;;;;;;;8.98;36.64;99773.23;1805022;78;21351;-66
2021/04/28 07:36:37;;;;;;;5.60;1.80;;;;;;;9.03;37.49;99776.44;1773219;81;20894;-63
2021/04/28 07:39:07;;;;;;;3.92;1.52;;;;;;;9.13;36.59;99773.53;1805000;79;20930;-63
2021/04/28 07:41:36;;;;;;;8.88;2.83;;;;;;;9.22;35.78;99773.09;1773238;80;21007;-64
2021/04/28 07:44:04;;;;;;;3.15;1.60;;;;;;;9.26;36.35;99776.27;1805066;79;21643;-63
2021/04/28 07:46:34;;;;;;;11.53;5.45;;;;;;;9.39;35.87;99767.82;1773254;81;21194;-63
2021/04/28 07:49:04;;;;;;;13.62;6.80;;;;;;;9.53;35.06;99772.77;1804956;79;20985;-66
2021/04/28 07:51:33;;;;;;;6.80;2.33;;;;;;;9.77;37.56;99771.20;1788228;80;21603;-68
2021/04/28 07:54:03;;;;;;;3.30;1.70;;;;;;;10.12;34.33;99773.74;1797388;79;21014;-65
2021/04/28 07:56:31;;;;;;;7.22;2.30;;;;;;;10.37;32.80;99761.99;1821114;78;21568;-66
2021/04/28 07:58:58;;;;;;;120.75;39.78;;;;;;;10.61;34.38;99757.58;1821016;78;21202;-63
2021/04/28 08:01:28;;;;;;;8.63;3.25;;;;;;;10.95;34.72;99771.57;1820941;78;21115;-67
2021/04/28 08:03:58;;;;;;;4.87;1.55;;;;;;;11.28;31.81;99763.02;1821015;78;20942;-67
2021/04/28 08:06:26;;;;;;;2.35;1.85;;;;;;;11.53;32.52;99770.59;1821016;78;20926;-67
2021/04/28 08:08:54;;;;;;;4.00;2.40;;;;;;;11.88;31.97;99765.48;1820980;78;20999;-69
2021/04/28 08:11:22;;;;;;;4.53;1.75;;;;;;;12.22;31.00;99765.30;1820924;78;21689;-66
2021/04/28 08:13:50;;;;;;;2.80;1.80;;;;;;;12.52;30.30;99767.69;1770583;78;21029;-71
2021/04/28 08:16:19;;;;;;;7.08;3.50;;;;;;;12.68;30.27;99756.44;1773203;80;21089;-70
2021/04/28 08:18:48;;;;;;;3.55;2.22;;;;;;;12.80;30.17;99756.56;1788007;80;20910;-65
2021/04/28 08:21:17;;;;;;;5.25;2.60;;;;;;;13.03;30.21;99759.95;1788292;78;21599;-65
2021/04/28 08:23:45;;;;;;;4.15;2.00;;;;;;;13.28;29.27;99758.31;1788342;80;21201;-66
2021/04/28 08:26:14;;;;;;;5.95;2.85;;;;;;;13.49;29.42;99757.81;1778863;80;21903;-65
2021/04/28 08:28:44;;;;;;;5.25;2.90;;;;;;;13.59;27.31;99757.21;1751287;80;20998;-65
2021/04/28 08:31:19;;;;;;;4.42;2.22;;;;;;;13.46;28.13;99752.95;1747037;80;20986;-66
2021/04/28 08:33:47;;;;;;;3.72;1.92;;;;;;;13.48;28.34;99748.48;1772429;80;21061;-64
2021/04/28 08:36:15;;;;;;;7.28;2.08;;;;;;;13.40;27.61;99741.05;1758716;80;22801;-65
2021/04/28 08:38:44;;;;;;;4.30;2.27;;;;;;;13.37;29.14;99746.66;1747059;82;21553;-67
2021/04/28 08:41:13;;;;;;;4.47;2.90;;;;;;;13.43;28.54;99750.85;1747182;82;21552;-64
2021/04/28 08:43:41;;;;;;;6.33;3.40;;;;;;;13.61;27.51;99751.60;1747013;82;20966;-64
2021/04/28 08:46:09;;;;;;;7.65;3.00;;;;;;;13.55;27.13;99745.45;1747108;81;21079;-65
2021/04/28 08:48:37;;;;;;;3.45;2.02;;;;;;;13.43;26.75;99750.85;1747080;82;21251;-65
2021/04/28 08:51:05;;;;;;;3.22;2.17;;;;;;;13.28;27.09;99747.84;1747056;82;20967;-63
2021/04/28 08:53:33;;;;;;;3.12;1.90;;;;;;;13.15;28.32;99751.81;1754092;80;21592;-62
2021/04/28 08:56:08;;;;;;;5.53;2.77;;;;;;;13.03;26.94;99750.30;1757168;80;21022;-63
2021/04/28 08:58:36;;;;;;;3.00;2.00;;;;;;;12.87;27.43;99753.31;1747019;82;20931;-64
2021/04/28 09:01:05;;;;;;;28.62;11.28;;;;;;;12.79;26.75;99747.25;1747029;82;21572;-63
2021/04/28 09:03:42;;;;;;;3.33;2.00;;;;;;;12.69;28.87;99751.17;1747042;82;21005;-63
2021/04/28 09:06:26;;;;;;;4.10;1.90;;;;;;;12.98;26.67;99751.84;1745499;82;20938;-62
2021/04/28 09:08:53;;;;;;;9.95;1.87;;;;;;;13.23;27.50;99754.34;1748237;79;21005;-66
2021/04/28 09:11:51;;;;;;;2.75;2.02;;;;;;;13.38;27.37;99754.36;1803259;79;20995;-64
2021/04/28 09:14:27;;;;;;;4.08;2.17;;;;;;;13.44;27.73;99747.53;1788203;79;21538;-65
2021/04/28 09:17:02;;;;;;;5.70;2.27;;;;;;;13.61;26.64;99744.70;1765581;81;21079;-64
2021/04/28 09:19:55;;;;;;;2.65;1.60;;;;;;;13.86;26.46;99747.11;1793207;79;21247;-64
2021/04/28 09:22:49;;;;;;;2.77;2.12;;;;;;;13.87;27.31;99743.98;1769710;81;21004;-65
2021/04/28 09:25:45;;;;;;;3.30;2.22;;;;;;;13.89;26.43;99747.22;1743331;82;21191;-68
2021/04/28 09:28:35;;;;;;;4.37;2.12;;;;;;;14.15;27.63;99736.61;1770567;80;21148;-66
2021/04/28 09:31:12;;;;;;;3.67;2.65;;;;;;;14.44;26.58;99742.70;1748815;79;21086;-70
2021/04/28 09:33:52;;;;;;;3.67;1.72;;;;;;;14.49;24.91;99732.80;1735833;81;21033;-67
2021/04/28 09:36:34;;;;;;;4.10;2.52;;;;;;;14.32;24.75;99737.88;1734732;82;21163;-71
2021/04/28 09:39:08;;;;;;;5.70;2.20;;;;;;;14.17;25.46;99750.89;1745971;81;21104;-71
2021/04/28 09:41:43;;;;;;;3.33;1.95;;;;;;;14.13;25.68;99741.09;1766173;80;21418;-69
2021/04/28 09:44:23;;;;;;;5.20;2.50;;;;;;;14.10;24.46;99736.80;1765966;81;21227;-69
2021/04/28 09:46:57;;;;;;;2.98;2.22;;;;;;;14.13;26.28;99736.13;1766050;81;21017;-70
2021/04/28 09:49:27;;;;;;;5.85;2.17;;;;;;;14.35;24.90;99731.68;1766119;81;21033;-78
2021/04/28 09:51:58;;;;;;;4.55;1.80;;;;;;;14.42;25.34;99722.89;1766112;79;20930;-70
2021/04/28 09:54:30;;;;;;;5.40;2.55;;;;;;;14.60;26.38;99723.53;1766118;81;20942;-69
2021/04/28 09:56:58;;;;;;;2.87;2.27;;;;;;;14.80;26.09;99719.37;1766098;81;21607;-73
2021/04/28 09:59:50;;;;;;;3.12;1.90;;;;;;;15.01;26.54;99717.14;1756553;79;21014;-69
2021/04/28 10:02:32;;;;;;;3.47;2.10;;;;;;;15.17;26.78;99720.27;1755237;81;21069;-68
2021/04/28 10:05:35;;;;;;;3.72;2.10;;;;;;;15.38;27.93;99712.48;1764237;81;21600;-67
2021/04/28 10:08:11;;;;;;;3.15;2.30;;;;;;;15.61;28.30;99715.04;1765133;81;22268;-69
2021/04/28 10:10:40;;;;;;;5.35;2.30;;;;;;;15.85;24.79;99712.86;1761874;81;21561;-67
2021/04/28 10:13:09;;;;;;;4.50;2.30;;;;;;;15.81;24.79;99703.05;1765951;81;21096;-66
2021/04/28 10:15:37;;;;;;;4.42;2.30;;;;;;;15.99;24.36;99713.31;1766218;81;21117;-69
2021/04/28 10:18:08;;;;;;;5.00;2.17;;;;;;;16.05;24.96;99707.77;1763120;79;20950;-66
2021/04/28 10:20:39;;;;;;;3.20;2.20;;;;;;;16.17;23.74;99703.56;1762947;81;21350;-67
2021/04/28 10:23:12;;;;;;;3.10;2.20;;;;;;;16.29;23.20;99698.58;1755465;79;21169;-67
2021/04/28 10:25:41;;;;;;;3.65;2.10;;;;;;;15.99;22.78;99711.12;1765748;79;21168;-66
2021/04/28 10:28:10;;;;;;;3.27;1.87;;;;;;;15.63;23.89;99705.02;1754612;80;21500;-67
2021/04/28 10:30:48;;;;;;;4.10;2.05;;;;;;;15.52;24.73;99704.66;1763883;80;21473;-68
2021/04/28 10:33:24;;;;;;;6.10;2.00;;;;;;;15.66;25.07;99701.55;1767764;80;21140;-67
2021/04/28 10:35:53;;;;;;;3.08;2.08;;;;;;;15.57;25.47;99701.70;1768457;80;21136;-68
2021/04/28 10:38:25;;;;;;;3.02;1.90;;;;;;;15.41;24.64;99696.58;1759831;80;21053;-64
2021/04/28 10:40:53;;;;;;;5.50;2.62;;;;;;;15.35;26.62;99691.84;1762249;80;21113;-63
2021/04/28 10:43:34;;;;;;;3.35;2.17;;;;;;;15.55;25.91;99699.02;1762783;79;21179;-63
2021/04/28 10:46:22;;;;;;;3.37;2.05;;;;;;;15.49;24.99;99695.66;1764773;79;22250;-65
2021/04/28 10:48:52;;;;;;;4.10;2.35;;;;;;;15.47;24.89;99692.43;1759119;79;20982;-66
2021/04/28 10:51:38;;;;;;;4.35;2.05;;;;;;;15.47;25.12;99696.58;1740115;80;21178;-66
2021/04/28 10:54:27;;;;;;;5.53;3.50;;;;;;;15.72;25.25;99689.91;1763625;80;21098;-68
2021/04/28 10:57:06;;;;;;;2.92;1.62;;;;;;;15.92;24.08;99689.55;1754313;80;21477;-67
2021/04/28 10:59:37;;;;;;;4.03;2.05;;;;;;;15.92;23.99;99691.52;1763688;80;21274;-67
2021/04/28 11:02:08;;;;;;;5.62;1.67;;;;;;;15.81;23.52;99698.91;1740021;79;22343;-66
2021/04/28 11:04:36;;;;;;;3.35;1.85;;;;;;;15.64;24.84;99706.05;1761474;80;20915;-67
2021/04/28 11:07:04;;;;;;;3.85;1.57;;;;;;;15.47;23.94;99701.54;1760286;80;21203;-67
2021/04/28 11:09:33;;;;;;;4.53;1.80;;;;;;;15.60;23.39;99694.05;1761935;80;21133;-67
2021/04/28 11:12:01;;;;;;;5.58;1.52;;;;;;;15.83;23.58;99688.29;1763590;80;21439;-64
2021/04/28 11:14:30;;;;;;;2.20;1.65;;;;;;;15.94;23.16;99680.32;1761052;80;21219;-67
2021/04/28 11:17:19;;;;;;;2.02;1.60;;;;;;;15.85;24.54;99690.13;1754862;80;21234;-68
2021/04/28 11:19:51;;;;;;;3.12;2.15;;;;;;;15.81;23.73;99685.06;1760726;80;21037;-68
2021/04/28 11:22:24;;;;;;;1.90;1.42;;;;;;;15.91;23.31;99696.82;1772637;79;21481;-65
2021/04/28 11:25:16;;;;;;;2.95;1.80;;;;;;;16.03;22.02;99687.92;1740148;81;21434;-64
2021/04/28 11:28:03;;;;;;;1.60;1.47;;;;;;;15.89;22.14;99693.59;1755863;79;21020;-67
2021/04/28 11:30:39;;;;;;;3.58;1.70;;;;;;;15.67;21.95;99688.75;1754437;81;21206;-66
2021/04/28 11:33:31;;;;;;;2.05;1.52;;;;;;;15.72;24.86;99678.84;1752375;81;21070;-66
2021/04/28 11:36:08;;;;;;;5.40;2.30;;;;;;;16.11;23.68;99680.64;1755470;81;21154;-65
2021/04/28 11:38:39;;;;;;;2.42;1.70;;;;;;;16.15;23.31;99673.25;1754132;81;21719;-67
2021/04/28 11:41:13;;;;;;;3.02;1.80;;;;;;;16.26;24.09;99667.42;1751347;81;21155;-67
2021/04/28 11:43:50;;;;;;;4.45;2.75;;;;;;;16.48;23.99;99676.59;1755326;81;21191;-67
2021/04/28 11:46:22;;;;;;;3.60;2.62;;;;;;;16.49;22.88;99677.40;1755503;81;21051;-66
2021/04/28 11:48:54;;;;;;;2.98;1.90;;;;;;;16.33;22.89;99670.41;1754538;81;21154;-67